Climatologie pour Saint-Brevin les Pins
Jour • Résumé pour mars 4, 2017 Système :  Métrique    Anglais   Mixte
« - 1 jour
+ 1 jour »
Jour Semaine Mois Année Personnalisé
  Maximum : Minimum : Moyenne :
Température sous abri : 11.8 °C 5.4 °C 8.5 °C
Point de rosée : 8.9 °C 4.9 °C 6.5 °C
Humidité : 98 % 74 % 88 %
Vitesse du vent : 29.0 km/h 0.0 km/h 8 km/h
Rafale : 38.6 km/h - -
Direction :- - West
Pression : 1002.6 hPa 992.8 hPa -
Précipitations : 1.5 mm    
Historical Graphs
 
 
Tableau de données pour mars 4, 2017
Heure Tempé Pt rosée Pression Vent Vitesse Rafale Humidité Taux pluie (/hr) Soleil
00:00 8.6 °C 8.0 °C 993.5 hPa WSW 3.2 km/h 8.0 km/h 96 % 0.0 mm 0 W/m2
00:05 8.5 °C 7.9 °C 993.5 hPa WSW 4.8 km/h 9.7 km/h 96 % 0.0 mm 0 W/m2
00:10 8.4 °C 7.8 °C 993.5 hPa SW 4.8 km/h 9.7 km/h 96 % 0.0 mm 0 W/m2
00:15 8.3 °C 7.7 °C 993.1 hPa SW 3.2 km/h 9.7 km/h 96 % 0.0 mm 0 W/m2
00:20 8.3 °C 7.5 °C 993.5 hPa WSW 3.2 km/h 11.3 km/h 95 % 0.0 mm 0 W/m2
00:25 8.2 °C 7.5 °C 993.5 hPa West 6.4 km/h 11.3 km/h 95 % 0.0 mm 0 W/m2
00:30 8.3 °C 7.6 °C 993.8 hPa West 4.8 km/h 12.9 km/h 95 % 0.0 mm 0 W/m2
00:35 8.4 °C 7.7 °C 993.8 hPa WSW 8.0 km/h 12.9 km/h 95 % 0.0 mm 0 W/m2
00:40 8.5 °C 7.7 °C 993.8 hPa SW 6.4 km/h 11.3 km/h 95 % 0.0 mm 0 W/m2
00:45 8.6 °C 7.8 °C 993.8 hPa WNW 4.8 km/h 11.3 km/h 95 % 0.0 mm 0 W/m2
00:50 8.6 °C 7.8 °C 993.5 hPa WSW 3.2 km/h 11.3 km/h 95 % 0.0 mm 0 W/m2
00:55 8.6 °C 7.8 °C 993.5 hPa West 8.0 km/h 12.9 km/h 95 % 0.0 mm 0 W/m2
01:00 8.6 °C 7.9 °C 993.5 hPa West 8.0 km/h 12.9 km/h 95 % 0.0 mm 0 W/m2
01:05 8.7 °C 7.9 °C 993.5 hPa WSW 8.0 km/h 12.9 km/h 95 % 0.0 mm 0 W/m2
01:10 8.7 °C 8.0 °C 993.1 hPa WNW 6.4 km/h 12.9 km/h 95 % 0.0 mm 0 W/m2
01:15 8.8 °C 7.9 °C 993.1 hPa West 1.6 km/h 14.5 km/h 94 % 0.0 mm 0 W/m2
01:20 8.7 °C 7.8 °C 993.1 hPa WNW 4.8 km/h 14.5 km/h 94 % 0.0 mm 0 W/m2
01:25 8.7 °C 7.8 °C 993.5 hPa West 4.8 km/h 11.3 km/h 94 % 0.0 mm 0 W/m2
01:30 8.7 °C 7.8 °C 993.5 hPa WNW 8.0 km/h 14.5 km/h 94 % 0.0 mm 0 W/m2
01:35 8.7 °C 7.8 °C 993.5 hPa WNW 3.2 km/h 14.5 km/h 94 % 0.0 mm 0 W/m2
01:40 8.7 °C 7.8 °C 993.8 hPa NW 6.4 km/h 14.5 km/h 94 % 0.0 mm 0 W/m2
01:45 8.7 °C 7.8 °C 993.8 hPa NW 8.0 km/h 14.5 km/h 94 % 0.0 mm 0 W/m2
01:50 8.7 °C 7.8 °C 993.8 hPa NW 9.7 km/h 14.5 km/h 94 % 0.0 mm 0 W/m2
01:55 8.7 °C 7.8 °C 993.8 hPa NW 4.8 km/h 16.1 km/h 94 % 0.0 mm 0 W/m2
02:00 8.7 °C 7.6 °C 993.8 hPa WNW 4.8 km/h 16.1 km/h 93 % 0.0 mm 0 W/m2
02:05 8.7 °C 7.6 °C 993.8 hPa NW 1.6 km/h 12.9 km/h 93 % 0.0 mm 0 W/m2
02:10 8.6 °C 7.5 °C 993.8 hPa NW 14.5 km/h 14.5 km/h 93 % 0.0 mm 0 W/m2
02:15 8.4 °C 7.4 °C 994.1 hPa WNW 6.4 km/h 14.5 km/h 93 % 0.0 mm 0 W/m2
02:20 8.4 °C 7.3 °C 994.1 hPa WNW 4.8 km/h 14.5 km/h 93 % 0.0 mm 0 W/m2
02:30 8.2 °C 7.2 °C 993.8 hPa NW 3.2 km/h 8.0 km/h 93 % 0.0 mm 0 W/m2
02:35 8.1 °C 7.0 °C 993.8 hPa WNW 8.0 km/h 9.7 km/h 93 % 0.0 mm 0 W/m2
02:40 8.1 °C 7.0 °C 993.8 hPa WNW 6.4 km/h 9.7 km/h 93 % 0.0 mm 0 W/m2
02:45 7.9 °C 6.9 °C 993.8 hPa WNW 6.4 km/h 9.7 km/h 93 % 0.0 mm 0 W/m2
02:50 7.9 °C 6.9 °C 993.8 hPa Calm   8.0 km/h 93 % 0.0 mm 0 W/m2
02:55 7.8 °C 6.7 °C 993.5 hPa WNW 1.6 km/h 6.4 km/h 93 % 0.0 mm 0 W/m2
03:00 7.6 °C 6.7 °C 993.5 hPa Calm   6.4 km/h 94 % 0.0 mm 0 W/m2
03:05 7.3 °C 6.3 °C 993.5 hPa WNW 3.2 km/h 4.8 km/h 93 % 0.0 mm 0 W/m2
03:10 7.2 °C 6.3 °C 993.5 hPa WNW 1.6 km/h 6.4 km/h 94 % 0.0 mm 0 W/m2
03:15 7.1 °C 6.2 °C 993.5 hPa Calm   6.4 km/h 94 % 0.0 mm 0 W/m2
03:20 7.0 °C 6.1 °C 993.8 hPa Calm   4.8 km/h 94 % 0.0 mm 0 W/m2
03:25 6.8 °C 5.9 °C 993.8 hPa Calm   3.2 km/h 94 % 0.0 mm 0 W/m2
03:30 6.6 °C 5.7 °C 993.8 hPa Calm   1.6 km/h 94 % 0.0 mm 0 W/m2
03:35 6.5 °C 5.8 °C 993.5 hPa Calm   1.6 km/h 95 % 0.0 mm 0 W/m2
03:40 6.2 °C 5.5 °C 993.5 hPa Calm   3.2 km/h 95 % 0.0 mm 0 W/m2
03:45 5.9 °C 5.2 °C 993.1 hPa Calm   4.8 km/h 95 % 0.0 mm 0 W/m2
03:50 5.8 °C 5.1 °C 993.1 hPa WNW 3.2 km/h 4.8 km/h 95 % 0.0 mm 0 W/m2
03:55 5.7 °C 5.0 °C 993.1 hPa Calm   3.2 km/h 95 % 0.0 mm 0 W/m2
04:00 5.7 °C 4.9 °C 993.1 hPa Calm   3.2 km/h 95 % 0.0 mm 0 W/m2
04:05 5.7 °C 5.1 °C 993.1 hPa Calm     96 % 0.0 mm 0 W/m2
04:10 5.7 °C 5.1 °C 993.5 hPa Calm   3.2 km/h 96 % 0.0 mm 0 W/m2
04:20 5.8 °C 5.2 °C 993.1 hPa Calm   4.8 km/h 96 % 0.0 mm 0 W/m2
04:25 5.7 °C 5.1 °C 993.1 hPa Calm   6.4 km/h 96 % 0.0 mm 0 W/m2
04:30 5.9 °C 5.5 °C 993.1 hPa Calm   6.4 km/h 97 % 0.0 mm 0 W/m2
04:35 6.2 °C 5.8 °C 993.1 hPa Calm   6.4 km/h 97 % 0.0 mm 0 W/m2
04:40 6.4 °C 6.0 °C 992.8 hPa Calm   6.4 km/h 97 % 0.0 mm 0 W/m2
04:45 6.3 °C 5.7 °C 993.1 hPa Calm   4.8 km/h 96 % 0.0 mm 0 W/m2
04:50 6.2 °C 5.6 °C 993.1 hPa Calm   3.2 km/h 96 % 0.0 mm 0 W/m2
04:55 6.3 °C 5.9 °C 993.1 hPa WSW 1.6 km/h 3.2 km/h 97 % 0.0 mm 0 W/m2
05:00 6.3 °C 5.9 °C 993.1 hPa WSW 3.2 km/h 3.2 km/h 97 % 0.0 mm 0 W/m2
05:05 6.3 °C 5.8 °C 993.1 hPa Calm   4.8 km/h 97 % 0.0 mm 0 W/m2
05:10 6.2 °C 5.8 °C 993.1 hPa Calm   4.8 km/h 97 % 0.0 mm 0 W/m2
05:15 6.2 °C 5.7 °C 993.5 hPa Calm   1.6 km/h 97 % 0.0 mm 0 W/m2
05:20 6.1 °C 5.7 °C 993.5 hPa WSW 3.2 km/h 4.8 km/h 97 % 0.0 mm 0 W/m2
05:25 6.2 °C 5.8 °C 993.1 hPa WSW 1.6 km/h 4.8 km/h 97 % 0.0 mm 0 W/m2
05:30 6.3 °C 5.9 °C 993.1 hPa WSW 1.6 km/h 6.4 km/h 97 % 0.0 mm 0 W/m2
05:35 6.6 °C 6.1 °C 993.1 hPa Calm   11.3 km/h 97 % 0.0 mm 0 W/m2
05:40 6.9 °C 6.6 °C 993.1 hPa West 6.4 km/h 12.9 km/h 98 % 0.0 mm 0 W/m2
05:45 7.3 °C 7.0 °C 993.1 hPa WNW 6.4 km/h 29.0 km/h 98 % 0.0 mm 0 W/m2
05:50 7.2 °C 6.7 °C 993.5 hPa WNW 9.7 km/h 32.2 km/h 97 % 0.0 mm 0 W/m2
05:55 6.9 °C 6.5 °C 993.5 hPa West 14.5 km/h 32.2 km/h 97 % 0.0 mm 0 W/m2
06:00 6.8 °C 6.4 °C 993.5 hPa WNW 17.7 km/h 38.6 km/h 97 % 0.3 mm 0 W/m2
06:05 6.7 °C 6.2 °C 993.8 hPa WNW 8.0 km/h 38.6 km/h 97 % 0.5 mm 0 W/m2
06:10 6.6 °C 6.2 °C 993.8 hPa WSW 8.0 km/h 33.8 km/h 97 % 0.5 mm 0 W/m2
06:15 6.6 °C 6.1 °C 993.8 hPa WNW 9.7 km/h 22.5 km/h 97 % 1.0 mm 0 W/m2
06:20 6.6 °C 6.1 °C 993.8 hPa West 3.2 km/h 16.1 km/h 97 % 1.0 mm 0 W/m2
06:25 6.6 °C 6.1 °C 993.8 hPa WNW 4.8 km/h 16.1 km/h 97 % 1.3 mm 0 W/m2
06:30 6.6 °C 6.1 °C 994.1 hPa WNW 12.9 km/h 17.7 km/h 97 % 1.3 mm 0 W/m2
06:35 6.5 °C 6.1 °C 994.1 hPa West 6.4 km/h 17.7 km/h 97 % 1.3 mm 0 W/m2
06:40 6.5 °C 6.1 °C 994.1 hPa WNW 6.4 km/h 17.7 km/h 97 % 1.3 mm 0 W/m2
06:45 6.5 °C 6.1 °C 994.1 hPa NW 6.4 km/h 17.7 km/h 97 % 1.3 mm 0 W/m2
06:50 6.5 °C 6.1 °C 994.1 hPa West 9.7 km/h 14.5 km/h 97 % 1.3 mm 0 W/m2
06:55 6.5 °C 6.1 °C 994.1 hPa WNW 1.6 km/h 12.9 km/h 97 % 1.3 mm 0 W/m2
07:00 6.4 °C 6.0 °C 994.1 hPa NW 9.7 km/h 14.5 km/h 97 % 1.0 mm 0 W/m2
07:05 6.4 °C 5.9 °C 994.1 hPa WNW 9.7 km/h 14.5 km/h 97 % 0.8 mm 0 W/m2
07:10 6.3 °C 5.9 °C 993.8 hPa NW 1.6 km/h 14.5 km/h 97 % 0.5 mm 0 W/m2
07:15 6.3 °C 5.7 °C 993.8 hPa WNW 3.2 km/h 12.9 km/h 96 % 0.5 mm 0 W/m2
07:20 6.3 °C 5.7 °C 993.8 hPa NW 1.6 km/h 14.5 km/h 96 % 0.3 mm 0 W/m2
07:25 6.2 °C 5.6 °C 993.8 hPa NW 1.6 km/h 14.5 km/h 96 % 0.3 mm 0 W/m2
07:30 6.2 °C 5.7 °C 993.8 hPa Calm   8.0 km/h 97 % 0.3 mm 0 W/m2
07:40 5.9 °C 5.4 °C 993.5 hPa NW 1.6 km/h 3.2 km/h 96 % 0.3 mm 0 W/m2
07:45 5.8 °C 5.2 °C 993.5 hPa Calm   3.2 km/h 96 % 0.5 mm 0 W/m2
07:50 5.8 °C 5.2 °C 993.5 hPa NW 1.6 km/h 4.8 km/h 96 % 0.5 mm 0 W/m2
07:55 5.7 °C 5.1 °C 993.5 hPa Calm   4.8 km/h 96 % 0.5 mm 7 W/m2
08:00 5.6 °C 5.0 °C 993.5 hPa Calm   6.4 km/h 96 % 0.5 mm 11 W/m2
08:05 5.4 °C 4.9 °C 993.5 hPa WNW 1.6 km/h 6.4 km/h 96 % 0.5 mm 12 W/m2
08:10 5.6 °C 5.2 °C 993.5 hPa WNW 4.8 km/h 6.4 km/h 97 % 0.5 mm 14 W/m2
08:15 5.8 °C 5.3 °C 993.5 hPa WNW 4.8 km/h 6.4 km/h 97 % 0.3 mm 12 W/m2
08:20 5.9 °C 5.4 °C 993.5 hPa WNW 6.4 km/h 8.0 km/h 97 % 0.3 mm 9 W/m2
08:25 6.1 °C 5.6 °C 993.5 hPa WNW 12.9 km/h 24.1 km/h 97 % 0.3 mm 12 W/m2
08:30 6.1 °C 5.7 °C 993.5 hPa WNW 8.0 km/h 24.1 km/h 97 % 0.3 mm 14 W/m2
08:35 6.1 °C 5.7 °C 993.5 hPa NNW 8.0 km/h 20.9 km/h 97 % 0.3 mm 18 W/m2
08:40 6.1 °C 5.7 °C 993.5 hPa NW 1.6 km/h 20.9 km/h 97 % 0.3 mm 18 W/m2
08:45 6.1 °C 5.6 °C 993.5 hPa West 4.8 km/h 14.5 km/h 97 % 0.0 mm 25 W/m2
08:50 6.1 °C 5.6 °C 993.5 hPa WNW 3.2 km/h 14.5 km/h 97 % 0.0 mm 40 W/m2
08:55 6.1 °C 5.7 °C 993.5 hPa NNW 3.2 km/h 14.5 km/h 97 % 0.0 mm 40 W/m2
09:00 6.2 °C 5.8 °C 993.5 hPa WNW 4.8 km/h 9.7 km/h 97 % 0.0 mm 28 W/m2
09:10 6.1 °C 5.5 °C 993.5 hPa Calm   8.0 km/h 96 % 0.0 mm 53 W/m2
09:15 6.2 °C 5.6 °C 993.5 hPa Calm   4.8 km/h 96 % 0.0 mm 47 W/m2
09:20 6.3 °C 5.7 °C 993.5 hPa Calm   1.6 km/h 96 % 0.0 mm 37 W/m2
09:25 6.4 °C 5.8 °C 993.8 hPa WNW 1.6 km/h 3.2 km/h 96 % 0.0 mm 40 W/m2
09:35 6.8 °C 6.0 °C 993.8 hPa WSW 1.6 km/h 6.4 km/h 95 % 0.0 mm 40 W/m2
09:40 7.1 °C 6.3 °C 994.1 hPa WSW 1.6 km/h 8.0 km/h 95 % 0.0 mm 42 W/m2
09:45 7.3 °C 6.4 °C 994.1 hPa West 8.0 km/h 12.9 km/h 94 % 0.0 mm 44 W/m2
09:50 7.3 °C 6.2 °C 994.1 hPa West 4.8 km/h 12.9 km/h 93 % 0.0 mm 53 W/m2
09:55 7.3 °C 6.2 °C 994.1 hPa SW 8.0 km/h 12.9 km/h 93 % 0.0 mm 56 W/m2
10:00 7.4 °C 6.4 °C 994.1 hPa West 1.6 km/h 9.7 km/h 93 % 0.0 mm 47 W/m2
10:05 7.8 °C 6.6 °C 994.1 hPa WSW 6.4 km/h 9.7 km/h 92 % 0.0 mm 350 W/m2
10:10 8.2 °C 6.8 °C 994.1 hPa West 4.8 km/h 11.3 km/h 91 % 0.0 mm 357 W/m2
10:15 8.4 °C 6.7 °C 994.1 hPa West 4.8 km/h 11.3 km/h 89 % 0.0 mm 369 W/m2
10:20 8.6 °C 6.5 °C 994.1 hPa West 3.2 km/h 12.9 km/h 87 % 0.0 mm 385 W/m2
10:25 8.7 °C 6.3 °C 994.1 hPa WNW 6.4 km/h 16.1 km/h 85 % 0.0 mm 394 W/m2
10:30 8.7 °C 6.3 °C 994.1 hPa WSW 4.8 km/h 17.7 km/h 85 % 0.0 mm 410 W/m2
10:35 8.8 °C 6.4 °C 994.1 hPa WSW 11.3 km/h 17.7 km/h 85 % 0.0 mm 420 W/m2
10:40 8.7 °C 6.3 °C 994.1 hPa WSW 14.5 km/h 16.1 km/h 85 % 0.0 mm 431 W/m2
10:45 8.8 °C 6.4 °C 994.1 hPa WNW 4.8 km/h 17.7 km/h 85 % 0.0 mm 443 W/m2
10:50 8.9 °C 6.6 °C 994.1 hPa WSW 11.3 km/h 17.7 km/h 85 % 0.0 mm 459 W/m2
10:55 9.2 °C 6.6 °C 994.1 hPa West 4.8 km/h 19.3 km/h 84 % 0.0 mm 487 W/m2
11:00 9.3 °C 6.8 °C 994.1 hPa WSW 6.4 km/h 19.3 km/h 84 % 0.0 mm 478 W/m2
11:05 9.4 °C 6.6 °C 994.5 hPa WSW 4.8 km/h 17.7 km/h 83 % 0.0 mm 482 W/m2
11:10 9.7 °C 7.1 °C 994.5 hPa WSW 11.3 km/h 17.7 km/h 84 % 0.0 mm 487 W/m2
11:15 9.5 °C 6.9 °C 994.5 hPa WSW 8.0 km/h 19.3 km/h 84 % 0.0 mm 497 W/m2
11:20 9.7 °C 6.7 °C 994.5 hPa SW 3.2 km/h 19.3 km/h 82 % 0.0 mm 506 W/m2
11:25 9.8 °C 6.7 °C 994.8 hPa WSW 8.0 km/h 17.7 km/h 81 % 0.0 mm 515 W/m2
11:30 9.8 °C 6.7 °C 994.8 hPa WNW 8.0 km/h 24.1 km/h 81 % 0.0 mm 522 W/m2
11:35 10.2 °C 7.2 °C 994.8 hPa WSW 8.0 km/h 24.1 km/h 82 % 0.0 mm 529 W/m2
11:40 10.2 °C 6.9 °C 994.8 hPa West 9.7 km/h 22.5 km/h 80 % 0.0 mm 538 W/m2
11:45 10.6 °C 7.4 °C 994.8 hPa WSW 11.3 km/h 22.5 km/h 81 % 0.0 mm 545 W/m2
11:50 10.4 °C 7.1 °C 994.8 hPa West 4.8 km/h 22.5 km/h 80 % 0.0 mm 548 W/m2
11:55 10.5 °C 7.0 °C 994.8 hPa WSW 16.1 km/h 22.5 km/h 79 % 0.0 mm 555 W/m2
12:00 10.3 °C 7.0 °C 994.8 hPa SW 9.7 km/h 20.9 km/h 80 % 0.0 mm 563 W/m2
12:05 10.5 °C 7.4 °C 995.1 hPa WSW 4.8 km/h 20.9 km/h 81 % 0.0 mm 564 W/m2
12:10 10.6 °C 7.4 °C 995.1 hPa WNW 12.9 km/h 19.3 km/h 81 % 0.0 mm 571 W/m2
12:15 10.5 °C 7.6 °C 994.8 hPa WSW 3.2 km/h 24.1 km/h 82 % 0.0 mm 578 W/m2
12:20 10.8 °C 7.5 °C 994.8 hPa West 8.0 km/h 24.1 km/h 80 % 0.0 mm 619 W/m2
12:30 10.8 °C 7.3 °C 995.1 hPa West 6.4 km/h 20.9 km/h 79 % 0.0 mm 599 W/m2
12:35 10.7 °C 7.2 °C 995.1 hPa WNW 6.4 km/h 19.3 km/h 79 % 0.0 mm 615 W/m2
12:40 10.9 °C 7.6 °C 995.1 hPa SW 6.4 km/h 20.9 km/h 80 % 0.0 mm 617 W/m2
12:45 10.9 °C 7.6 °C 995.1 hPa WSW 14.5 km/h 20.9 km/h 80 % 0.0 mm 670 W/m2
12:50 11.2 °C 7.9 °C 995.1 hPa West 11.3 km/h 20.9 km/h 80 % 0.0 mm 642 W/m2
12:55 11.1 °C 7.6 °C 995.1 hPa WSW 20.9 km/h 24.1 km/h 79 % 0.0 mm 610 W/m2
13:00 10.8 °C 7.3 °C 995.1 hPa WSW 14.5 km/h 24.1 km/h 79 % 0.0 mm 608 W/m2
13:05 11.0 °C 7.7 °C 995.1 hPa WSW 14.5 km/h 24.1 km/h 80 % 0.0 mm 606 W/m2
13:10 10.9 °C 7.6 °C 995.1 hPa WSW 29.0 km/h 29.0 km/h 80 % 0.0 mm 608 W/m2
13:15 11.3 °C 7.4 °C 995.1 hPa West 4.8 km/h 29.0 km/h 77 % 0.0 mm 606 W/m2
13:20 11.4 °C 7.6 °C 995.1 hPa WNW 4.8 km/h 29.0 km/h 77 % 0.0 mm 608 W/m2
13:25 11.4 °C 7.7 °C 995.1 hPa SW 22.5 km/h 22.5 km/h 78 % 0.0 mm 608 W/m2
13:30 11.3 °C 7.4 °C 995.1 hPa SW 9.7 km/h 27.4 km/h 77 % 0.0 mm 605 W/m2
13:35 11.3 °C 7.4 °C 995.1 hPa WSW 14.5 km/h 29.0 km/h 77 % 0.0 mm 603 W/m2
13:40 11.6 °C 8.2 °C 995.1 hPa WSW 16.1 km/h 29.0 km/h 80 % 0.0 mm 603 W/m2
13:45 11.4 °C 7.7 °C 995.1 hPa WNW 6.4 km/h 29.0 km/h 78 % 0.0 mm 601 W/m2
13:50 11.6 °C 7.9 °C 995.1 hPa SW 6.4 km/h 29.0 km/h 78 % 0.0 mm 599 W/m2
13:55 11.6 °C 7.8 °C 995.1 hPa West 16.1 km/h 25.7 km/h 78 % 0.0 mm 596 W/m2
14:00 11.5 °C 7.4 °C 995.1 hPa WSW 16.1 km/h 25.7 km/h 76 % 0.0 mm 591 W/m2
14:05 11.8 °C 7.3 °C 995.1 hPa West 6.4 km/h 22.5 km/h 74 % 0.0 mm 561 W/m2
14:10 11.5 °C 7.4 °C 995.1 hPa West 14.5 km/h 24.1 km/h 76 % 0.0 mm 605 W/m2
14:15 11.2 °C 7.3 °C 995.1 hPa West 12.9 km/h 27.4 km/h 77 % 0.0 mm 585 W/m2
14:20 11.4 °C 7.4 °C 995.1 hPa West 12.9 km/h 29.0 km/h 76 % 0.0 mm 578 W/m2
14:25 11.3 °C 7.3 °C 995.1 hPa West 19.3 km/h 29.0 km/h 76 % 0.0 mm 575 W/m2
14:30 11.0 °C 7.7 °C 995.1 hPa West 12.9 km/h 30.6 km/h 80 % 0.0 mm 570 W/m2
14:40 11.1 °C 8.2 °C 995.1 hPa WNW 9.7 km/h 29.0 km/h 82 % 0.0 mm 578 W/m2
14:45 11.2 °C 7.7 °C 995.1 hPa WNW 11.3 km/h 30.6 km/h 79 % 0.0 mm 496 W/m2
14:50 11.3 °C 8.0 °C 995.5 hPa WNW 17.7 km/h 30.6 km/h 80 % 0.0 mm 132 W/m2
14:55 10.6 °C 7.4 °C 995.5 hPa NW 8.0 km/h 27.4 km/h 81 % 0.0 mm 146 W/m2
15:00 10.0 °C 6.9 °C 995.5 hPa West 12.9 km/h 24.1 km/h 81 % 0.0 mm 181 W/m2
15:05 10.0 °C 7.4 °C 995.5 hPa WNW 9.7 km/h 20.9 km/h 84 % 0.0 mm 315 W/m2
15:10 10.4 °C 7.7 °C 995.5 hPa West 14.5 km/h 25.7 km/h 83 % 0.0 mm 265 W/m2
15:15 10.2 °C 7.5 °C 995.5 hPa West 19.3 km/h 25.7 km/h 83 % 0.0 mm 272 W/m2
15:20 10.1 °C 7.5 °C 995.8 hPa West 17.7 km/h 27.4 km/h 84 % 0.0 mm 232 W/m2
15:25 10.1 °C 7.9 °C 995.8 hPa West 12.9 km/h 27.4 km/h 86 % 0.0 mm 155 W/m2
15:30 10.0 °C 7.9 °C 995.8 hPa NW 17.7 km/h 22.5 km/h 87 % 0.0 mm 204 W/m2
15:35 10.4 °C 8.7 °C 995.8 hPa WNW 12.9 km/h 22.5 km/h 89 % 0.0 mm 462 W/m2
15:40 11.0 °C 8.7 °C 996.2 hPa WSW 14.5 km/h 24.1 km/h 86 % 0.0 mm 638 W/m2
15:45 11.3 °C 8.9 °C 996.2 hPa NW 14.5 km/h 24.1 km/h 85 % 0.0 mm 255 W/m2
15:50 10.8 °C 7.9 °C 996.2 hPa WNW 4.8 km/h 25.7 km/h 82 % 0.0 mm 134 W/m2
15:55 10.5 °C 7.7 °C 996.2 hPa West 8.0 km/h 25.7 km/h 83 % 0.0 mm 70 W/m2
16:00 10.2 °C 7.4 °C 996.5 hPa West 12.9 km/h 33.8 km/h 83 % 0.0 mm 62 W/m2
16:05 9.9 °C 7.3 °C 996.5 hPa West 8.0 km/h 33.8 km/h 84 % 0.0 mm 53 W/m2
16:10 9.6 °C 7.5 °C 996.5 hPa West 12.9 km/h 30.6 km/h 87 % 0.0 mm 155 W/m2
16:15 9.9 °C 7.9 °C 996.5 hPa WNW 8.0 km/h 29.0 km/h 87 % 0.0 mm 155 W/m2
16:20 10.1 °C 7.6 °C 996.5 hPa WNW 19.3 km/h 29.0 km/h 85 % 0.0 mm 97 W/m2
16:30 10.3 °C 7.6 °C 996.5 hPa WNW 12.9 km/h 27.4 km/h 83 % 0.0 mm 413 W/m2
16:35 10.8 °C 8.0 °C 996.8 hPa West 17.7 km/h 27.4 km/h 83 % 0.0 mm 434 W/m2
16:40 11.0 °C 7.9 °C 996.8 hPa NW 22.5 km/h 29.0 km/h 81 % 0.0 mm 406 W/m2
16:45 11.0 °C 7.9 °C 996.8 hPa WNW 11.3 km/h 33.8 km/h 81 % 0.0 mm 320 W/m2
16:50 11.1 °C 7.7 °C 996.8 hPa WNW 11.3 km/h 37.0 km/h 80 % 0.0 mm 185 W/m2
16:55 11.2 °C 7.8 °C 996.8 hPa NW 8.0 km/h 37.0 km/h 80 % 0.0 mm 264 W/m2
17:00 11.1 °C 7.6 °C 997.2 hPa WNW 16.1 km/h 29.0 km/h 79 % 0.0 mm 102 W/m2
17:05 10.8 °C 7.1 °C 997.2 hPa NNW 19.3 km/h 29.0 km/h 78 % 0.0 mm 135 W/m2
17:10 10.8 °C 6.9 °C 997.2 hPa WNW 14.5 km/h 32.2 km/h 77 % 0.0 mm 91 W/m2
17:15 10.6 °C 6.6 °C 997.2 hPa NW 8.0 km/h 32.2 km/h 76 % 0.0 mm 98 W/m2
17:20 10.3 °C 6.3 °C 997.2 hPa WNW 17.7 km/h 32.2 km/h 76 % 0.0 mm 33 W/m2
17:25 9.9 °C 6.1 °C 997.5 hPa NNW 17.7 km/h 32.2 km/h 77 % 0.0 mm 40 W/m2
17:30 9.8 °C 6.1 °C 997.5 hPa NW 8.0 km/h 38.6 km/h 78 % 0.0 mm 113 W/m2
17:35 9.9 °C 6.5 °C 997.9 hPa West 9.7 km/h 38.6 km/h 79 % 0.0 mm 95 W/m2
17:40 10.1 °C 6.6 °C 997.5 hPa WNW 4.8 km/h 37.0 km/h 79 % 0.0 mm 60 W/m2
17:45 10.2 °C 6.7 °C 997.9 hPa WNW 12.9 km/h 37.0 km/h 79 % 0.0 mm 88 W/m2
17:50 10.2 °C 6.7 °C 997.9 hPa NW 17.7 km/h 29.0 km/h 79 % 0.0 mm 46 W/m2
17:55 10.1 °C 6.8 °C 997.9 hPa WNW 19.3 km/h 29.0 km/h 80 % 0.0 mm 37 W/m2
18:00 9.8 °C 6.5 °C 998.2 hPa WNW 8.0 km/h 32.2 km/h 80 % 0.0 mm 33 W/m2
18:05 9.7 °C 6.1 °C 998.2 hPa WNW 12.9 km/h 32.2 km/h 78 % 0.0 mm 30 W/m2
18:10 9.6 °C 5.8 °C 998.2 hPa NW 17.7 km/h 32.2 km/h 77 % 0.0 mm 28 W/m2
18:15 9.6 °C 5.7 °C 998.5 hPa NW 20.9 km/h 30.6 km/h 77 % 0.0 mm 26 W/m2
18:20 9.5 °C 5.9 °C 998.5 hPa NW 12.9 km/h 25.7 km/h 78 % 0.0 mm 25 W/m2
18:25 9.4 °C 5.9 °C 998.5 hPa WNW 12.9 km/h 33.8 km/h 79 % 0.0 mm 23 W/m2
18:30 9.3 °C 6.0 °C 998.9 hPa NW 12.9 km/h 33.8 km/h 80 % 0.0 mm 19 W/m2
18:35 9.2 °C 6.3 °C 998.9 hPa West 16.1 km/h 25.7 km/h 82 % 0.0 mm 18 W/m2
18:40 9.2 °C 6.3 °C 998.9 hPa WNW 19.3 km/h 33.8 km/h 82 % 0.0 mm 11 W/m2
18:45 9.2 °C 6.5 °C 998.9 hPa West 11.3 km/h 35.4 km/h 83 % 0.0 mm 7 W/m2
18:50 9.2 °C 6.6 °C 999.2 hPa West 25.7 km/h 35.4 km/h 84 % 0.0 mm 5 W/m2
18:55 9.1 °C 6.5 °C 999.2 hPa WNW 17.7 km/h 27.4 km/h 84 % 0.0 mm 0 W/m2
19:00 9.1 °C 6.5 °C 999.5 hPa NW 14.5 km/h 27.4 km/h 84 % 0.0 mm 0 W/m2
19:05 9.0 °C 6.3 °C 999.5 hPa NW 17.7 km/h 25.7 km/h 83 % 0.0 mm 0 W/m2
19:10 8.9 °C 6.2 °C 999.5 hPa WNW 14.5 km/h 27.4 km/h 83 % 0.0 mm 0 W/m2
19:15 8.9 °C 6.0 °C 999.5 hPa WNW 12.9 km/h 33.8 km/h 82 % 0.0 mm 0 W/m2
19:20 8.9 °C 5.9 °C 999.9 hPa WNW 19.3 km/h 33.8 km/h 81 % 0.0 mm 0 W/m2
19:25 8.8 °C 5.6 °C 999.9 hPa WNW 20.9 km/h 29.0 km/h 80 % 0.0 mm 0 W/m2
19:30 8.8 °C 5.3 °C 999.9 hPa NW 9.7 km/h 29.0 km/h 79 % 0.0 mm 0 W/m2
19:40 8.6 °C 5.3 °C 1000.2 hPa WNW 14.5 km/h 29.0 km/h 80 % 0.0 mm 0 W/m2
19:45 8.6 °C 5.5 °C 1000.2 hPa West 8.0 km/h 24.1 km/h 81 % 0.0 mm 0 W/m2
19:50 8.6 °C 5.5 °C 1000.6 hPa West 9.7 km/h 24.1 km/h 81 % 0.0 mm 0 W/m2
19:55 8.6 °C 5.5 °C 1000.6 hPa WNW 8.0 km/h 20.9 km/h 81 % 0.0 mm 0 W/m2
20:00 8.4 °C 5.5 °C 1000.6 hPa WNW 12.9 km/h 20.9 km/h 82 % 0.0 mm 0 W/m2
20:05 8.4 °C 5.5 °C 1000.6 hPa NW 11.3 km/h 20.9 km/h 82 % 0.0 mm 0 W/m2
20:10 8.4 °C 5.7 °C 1000.9 hPa WNW 11.3 km/h 22.5 km/h 83 % 0.0 mm 0 W/m2
20:15 8.5 °C 5.8 °C 1000.9 hPa West 9.7 km/h 22.5 km/h 83 % 0.0 mm 0 W/m2
20:20 8.4 °C 5.7 °C 1000.9 hPa WNW 12.9 km/h 22.5 km/h 83 % 0.0 mm 0 W/m2
20:25 8.4 °C 5.8 °C 1000.9 hPa WNW 11.3 km/h 22.5 km/h 84 % 0.0 mm 0 W/m2
20:30 8.4 °C 5.9 °C 1000.9 hPa WSW 8.0 km/h 22.5 km/h 84 % 0.0 mm 0 W/m2
20:35 8.4 °C 5.7 °C 1000.9 hPa West 11.3 km/h 22.5 km/h 83 % 0.0 mm 0 W/m2
20:40 8.4 °C 5.7 °C 1000.9 hPa WSW 6.4 km/h 17.7 km/h 83 % 0.0 mm 0 W/m2
20:45 8.5 °C 5.8 °C 1000.9 hPa WNW 6.4 km/h 17.7 km/h 83 % 0.0 mm 0 W/m2
20:50 8.6 °C 5.8 °C 1000.9 hPa West 6.4 km/h 19.3 km/h 83 % 0.0 mm 0 W/m2
20:55 8.7 °C 6.1 °C 1000.9 hPa NW 8.0 km/h 19.3 km/h 84 % 0.0 mm 0 W/m2
21:00 8.6 °C 6.1 °C 1001.2 hPa NW 11.3 km/h 14.5 km/h 84 % 0.0 mm 0 W/m2
21:10 8.3 °C 5.8 °C 1001.2 hPa NW 6.4 km/h 20.9 km/h 84 % 0.0 mm 0 W/m2
21:15 8.4 °C 5.7 °C 1001.2 hPa WNW 11.3 km/h 20.9 km/h 83 % 0.0 mm 0 W/m2
21:25 8.5 °C 5.8 °C 1001.6 hPa WNW 3.2 km/h 17.7 km/h 83 % 0.0 mm 0 W/m2
21:30 8.5 °C 5.8 °C 1001.6 hPa West 8.0 km/h 16.1 km/h 83 % 0.0 mm 0 W/m2
21:40 8.3 °C 5.8 °C 1001.6 hPa WNW 4.8 km/h 16.1 km/h 84 % 0.0 mm 0 W/m2
21:45 8.2 °C 5.7 °C 1001.9 hPa WNW 4.8 km/h 19.3 km/h 84 % 0.0 mm 0 W/m2
21:50 8.3 °C 5.2 °C 1001.9 hPa West 6.4 km/h 20.9 km/h 81 % 0.0 mm 0 W/m2
21:55 8.3 °C 5.4 °C 1001.9 hPa WNW 8.0 km/h 20.9 km/h 82 % 0.0 mm 0 W/m2
22:00 8.4 °C 5.5 °C 1001.9 hPa WNW 12.9 km/h 17.7 km/h 82 % 0.0 mm 0 W/m2
22:05 8.5 °C 5.4 °C 1001.9 hPa West 6.4 km/h 20.9 km/h 81 % 0.0 mm 0 W/m2
22:10 8.5 °C 5.4 °C 1002.3 hPa West 9.7 km/h 20.9 km/h 81 % 0.0 mm 0 W/m2
22:15 8.5 °C 5.6 °C 1001.9 hPa West 3.2 km/h 16.1 km/h 82 % 0.0 mm 0 W/m2
22:20 8.4 °C 5.7 °C 1001.9 hPa WSW 8.0 km/h 12.9 km/h 83 % 0.0 mm 0 W/m2
22:25 8.4 °C 5.8 °C 1001.9 hPa West 3.2 km/h 14.5 km/h 84 % 0.0 mm 0 W/m2
22:30 8.5 °C 6.1 °C 1001.9 hPa WNW 8.0 km/h 14.5 km/h 85 % 0.0 mm 0 W/m2
22:35 8.7 °C 6.3 °C 1001.9 hPa West 16.1 km/h 22.5 km/h 85 % 0.0 mm 0 W/m2
22:40 8.7 °C 6.3 °C 1001.9 hPa WNW 4.8 km/h 24.1 km/h 85 % 0.0 mm 0 W/m2
22:45 8.8 °C 6.2 °C 1001.9 hPa West 8.0 km/h 24.1 km/h 84 % 0.0 mm 0 W/m2
22:50 8.6 °C 5.9 °C 1001.9 hPa West 9.7 km/h 17.7 km/h 83 % 0.0 mm 0 W/m2
22:55 8.6 °C 6.0 °C 1001.9 hPa West 6.4 km/h 19.3 km/h 84 % 0.0 mm 0 W/m2
23:00 8.6 °C 5.8 °C 1001.9 hPa WSW 8.0 km/h 19.3 km/h 83 % 0.0 mm 0 W/m2
23:05 8.5 °C 5.8 °C 1001.9 hPa WNW 4.8 km/h 19.3 km/h 83 % 0.0 mm 0 W/m2
23:10 8.4 °C 5.7 °C 1001.9 hPa West 9.7 km/h 14.5 km/h 83 % 0.0 mm 0 W/m2
23:15 8.3 °C 5.8 °C 1002.3 hPa West 4.8 km/h 12.9 km/h 84 % 0.0 mm 0 W/m2
23:20 8.5 °C 5.9 °C 1002.3 hPa NW 3.2 km/h 11.3 km/h 84 % 0.0 mm 0 W/m2
23:25 8.4 °C 5.8 °C 1002.3 hPa West 9.7 km/h 11.3 km/h 84 % 0.0 mm 0 W/m2
23:30 8.5 °C 6.1 °C 1002.3 hPa WNW 4.8 km/h 9.7 km/h 85 % 0.0 mm 0 W/m2
23:35 8.4 °C 6.1 °C 1002.3 hPa Calm   9.7 km/h 85 % 0.0 mm 0 W/m2
23:40 8.5 °C 6.1 °C 1002.6 hPa WNW 14.5 km/h 17.7 km/h 85 % 0.0 mm 0 W/m2
23:45 8.7 °C 6.2 °C 1002.6 hPa SW 8.0 km/h 20.9 km/h 84 % 0.0 mm 0 W/m2
23:50 8.8 °C 6.0 °C 1002.6 hPa WNW 9.7 km/h 20.9 km/h 83 % 0.0 mm 0 W/m2
23:55 8.8 °C 6.1 °C 1002.6 hPa West 6.4 km/h 19.3 km/h 83 % 0.0 mm 0 W/m2
Avec l'autorisation de Weather Underground - 1.75 mb